sensor_id;sensor_type;location;lat;lon;timestamp;P1;durP1;ratioP1;P2;durP2;ratioP2
38465;SDS011;24244;51.950;5.902;2022-10-01T00:00:32;9.32;;;5.10;;
38465;SDS011;24244;51.950;5.902;2022-10-01T00:02:58;8.82;;;4.43;;
38465;SDS011;24244;51.950;5.902;2022-10-01T00:05:23;8.60;;;5.47;;
38465;SDS011;24244;51.950;5.902;2022-10-01T00:07:51;8.85;;;5.00;;
38465;SDS011;24244;51.950;5.902;2022-10-01T00:10:16;8.85;;;5.03;;
38465;SDS011;24244;51.950;5.902;2022-10-01T00:12:43;8.38;;;4.95;;
38465;SDS011;24244;51.950;5.902;2022-10-01T00:15:10;9.23;;;4.90;;
38465;SDS011;24244;51.950;5.902;2022-10-01T00:17:37;9.02;;;5.00;;
38465;SDS011;24244;51.950;5.902;2022-10-01T00:20:03;7.43;;;4.28;;
38465;SDS011;24244;51.950;5.902;2022-10-01T00:22:30;9.13;;;5.10;;
38465;SDS011;24244;51.950;5.902;2022-10-01T00:24:58;8.68;;;5.03;;
38465;SDS011;24244;51.950;5.902;2022-10-01T00:27:23;10.32;;;5.80;;
38465;SDS011;24244;51.950;5.902;2022-10-01T00:29:49;9.23;;;5.10;;
38465;SDS011;24244;51.950;5.902;2022-10-01T00:32:14;9.02;;;5.13;;
38465;SDS011;24244;51.950;5.902;2022-10-01T00:34:40;10.00;;;5.40;;
38465;SDS011;24244;51.950;5.902;2022-10-01T00:37:05;8.85;;;4.80;;
38465;SDS011;24244;51.950;5.902;2022-10-01T00:39:34;8.75;;;4.90;;
38465;SDS011;24244;51.950;5.902;2022-10-01T00:42:01;9.43;;;5.13;;
38465;SDS011;24244;51.950;5.902;2022-10-01T00:44:28;8.43;;;5.00;;
38465;SDS011;24244;51.950;5.902;2022-10-01T00:47:00;9.48;;;5.20;;
38465;SDS011;24244;51.950;5.902;2022-10-01T00:49:30;7.88;;;5.00;;
38465;SDS011;24244;51.950;5.902;2022-10-01T00:51:59;9.30;;;5.07;;
38465;SDS011;24244;51.950;5.902;2022-10-01T00:54:30;9.13;;;5.10;;
38465;SDS011;24244;51.950;5.902;2022-10-01T00:56:58;8.93;;;5.70;;
38465;SDS011;24244;51.950;5.902;2022-10-01T00:59:26;9.27;;;5.18;;
38465;SDS011;24244;51.950;5.902;2022-10-01T01:01:53;9.20;;;5.70;;
38465;SDS011;24244;51.950;5.902;2022-10-01T01:04:19;8.35;;;5.00;;
38465;SDS011;24244;51.950;5.902;2022-10-01T01:06:45;9.30;;;5.18;;
38465;SDS011;24244;51.950;5.902;2022-10-01T01:09:20;7.97;;;4.78;;
38465;SDS011;24244;51.950;5.902;2022-10-01T01:11:46;9.18;;;4.95;;
38465;SDS011;24244;51.950;5.902;2022-10-01T01:14:17;10.38;;;5.35;;
38465;SDS011;24244;51.950;5.902;2022-10-01T01:16:51;8.32;;;4.80;;
38465;SDS011;24244;51.950;5.902;2022-10-01T01:19:24;8.82;;;5.00;;
38465;SDS011;24244;51.950;5.902;2022-10-01T01:22:02;10.35;;;5.57;;
38465;SDS011;24244;51.950;5.902;2022-10-01T01:24:38;9.10;;;5.70;;
38465;SDS011;24244;51.950;5.902;2022-10-01T01:27:17;8.85;;;5.30;;
38465;SDS011;24244;51.950;5.902;2022-10-01T01:29:52;8.85;;;4.63;;
38465;SDS011;24244;51.950;5.902;2022-10-01T01:32:20;9.32;;;5.57;;
38465;SDS011;24244;51.950;5.902;2022-10-01T01:34:50;8.55;;;5.00;;
38465;SDS011;24244;51.950;5.902;2022-10-01T01:37:18;9.38;;;5.07;;
38465;SDS011;24244;51.950;5.902;2022-10-01T01:39:49;10.63;;;5.50;;
38465;SDS011;24244;51.950;5.902;2022-10-01T01:42:18;9.02;;;4.63;;
38465;SDS011;24244;51.950;5.902;2022-10-01T01:44:48;8.57;;;4.88;;
38465;SDS011;24244;51.950;5.902;2022-10-01T01:47:18;9.80;;;5.70;;
38465;SDS011;24244;51.950;5.902;2022-10-01T01:49:46;8.15;;;4.50;;
38465;SDS011;24244;51.950;5.902;2022-10-01T01:52:15;9.02;;;4.53;;
38465;SDS011;24244;51.950;5.902;2022-10-01T01:54:42;8.73;;;5.15;;
38465;SDS011;24244;51.950;5.902;2022-10-01T01:57:09;8.93;;;5.15;;
38465;SDS011;24244;51.950;5.902;2022-10-01T01:59:37;9.13;;;4.90;;
38465;SDS011;24244;51.950;5.902;2022-10-01T02:02:04;8.85;;;4.82;;
38465;SDS011;24244;51.950;5.902;2022-10-01T02:04:34;9.00;;;4.25;;
38465;SDS011;24244;51.950;5.902;2022-10-01T02:07:11;9.32;;;4.20;;
38465;SDS011;24244;51.950;5.902;2022-10-01T02:09:49;7.63;;;3.97;;
38465;SDS011;24244;51.950;5.902;2022-10-01T02:12:24;6.68;;;3.35;;
38465;SDS011;24244;51.950;5.902;2022-10-01T02:15:01;7.28;;;3.85;;
38465;SDS011;24244;51.950;5.902;2022-10-01T02:17:34;8.43;;;4.03;;
38465;SDS011;24244;51.950;5.902;2022-10-01T02:20:10;7.03;;;3.88;;
38465;SDS011;24244;51.950;5.902;2022-10-01T02:22:40;7.93;;;3.60;;
38465;SDS011;24244;51.950;5.902;2022-10-01T02:25:11;7.05;;;3.50;;
38465;SDS011;24244;51.950;5.902;2022-10-01T02:30:09;6.80;;;3.33;;
38465;SDS011;24244;51.950;5.902;2022-10-01T02:32:36;6.13;;;3.03;;
38465;SDS011;24244;51.950;5.902;2022-10-01T02:35:04;7.22;;;3.10;;
38465;SDS011;24244;51.950;5.902;2022-10-01T02:37:34;6.55;;;2.80;;
38465;SDS011;24244;51.950;5.902;2022-10-01T02:40:01;6.43;;;2.90;;
38465;SDS011;24244;51.950;5.902;2022-10-01T02:42:30;6.20;;;2.80;;
38465;SDS011;24244;51.950;5.902;2022-10-01T02:44:59;5.47;;;2.42;;
38465;SDS011;24244;51.950;5.902;2022-10-01T02:47:28;5.83;;;2.70;;
38465;SDS011;24244;51.950;5.902;2022-10-01T02:49:58;5.72;;;2.47;;
38465;SDS011;24244;51.950;5.902;2022-10-01T02:52:26;5.30;;;2.20;;
38465;SDS011;24244;51.950;5.902;2022-10-01T02:54:59;5.55;;;2.30;;
38465;SDS011;24244;51.950;5.902;2022-10-01T02:57:29;5.05;;;2.30;;
38465;SDS011;24244;51.950;5.902;2022-10-01T02:59:56;4.53;;;2.10;;
38465;SDS011;24244;51.950;5.902;2022-10-01T03:04:51;5.70;;;2.42;;
38465;SDS011;24244;51.950;5.902;2022-10-01T03:07:17;4.75;;;2.20;;
38465;SDS011;24244;51.950;5.902;2022-10-01T03:09:42;5.45;;;2.05;;
38465;SDS011;24244;51.950;5.902;2022-10-01T03:12:09;4.85;;;1.63;;
38465;SDS011;24244;51.950;5.902;2022-10-01T03:14:35;5.00;;;1.90;;
38465;SDS011;24244;51.950;5.902;2022-10-01T03:17:03;4.82;;;2.15;;
38465;SDS011;24244;51.950;5.902;2022-10-01T03:19:31;6.18;;;2.10;;
38465;SDS011;24244;51.950;5.902;2022-10-01T03:21:56;4.05;;;1.83;;
38465;SDS011;24244;51.950;5.902;2022-10-01T03:24:22;4.85;;;2.00;;
38465;SDS011;24244;51.950;5.902;2022-10-01T03:26:47;3.90;;;1.60;;
38465;SDS011;24244;51.950;5.902;2022-10-01T03:29:14;4.35;;;1.60;;
38465;SDS011;24244;51.950;5.902;2022-10-01T03:31:39;3.95;;;1.63;;
38465;SDS011;24244;51.950;5.902;2022-10-01T03:34:05;3.85;;;1.60;;
38465;SDS011;24244;51.950;5.902;2022-10-01T03:36:30;4.07;;;1.70;;
38465;SDS011;24244;51.950;5.902;2022-10-01T03:38:56;4.43;;;1.83;;
38465;SDS011;24244;51.950;5.902;2022-10-01T03:41:21;4.43;;;1.70;;
38465;SDS011;24244;51.950;5.902;2022-10-01T03:43:47;3.92;;;1.70;;
38465;SDS011;24244;51.950;5.902;2022-10-01T03:46:14;4.90;;;2.00;;
38465;SDS011;24244;51.950;5.902;2022-10-01T03:48:39;4.13;;;1.60;;
38465;SDS011;24244;51.950;5.902;2022-10-01T03:51:05;4.05;;;1.60;;
38465;SDS011;24244;51.950;5.902;2022-10-01T03:53:30;4.05;;;1.60;;
38465;SDS011;24244;51.950;5.902;2022-10-01T03:55:56;4.03;;;1.70;;
38465;SDS011;24244;51.950;5.902;2022-10-01T03:58:22;4.78;;;1.80;;
38465;SDS011;24244;51.950;5.902;2022-10-01T04:00:48;6.15;;;1.95;;
38465;SDS011;24244;51.950;5.902;2022-10-01T04:03:15;4.05;;;1.70;;
38465;SDS011;24244;51.950;5.902;2022-10-01T04:05:42;4.67;;;1.80;;
38465;SDS011;24244;51.950;5.902;2022-10-01T04:08:08;4.15;;;1.73;;
38465;SDS011;24244;51.950;5.902;2022-10-01T04:10:34;3.72;;;1.63;;
38465;SDS011;24244;51.950;5.902;2022-10-01T04:13:01;3.97;;;1.50;;
38465;SDS011;24244;51.950;5.902;2022-10-01T04:15:27;3.80;;;1.60;;
38465;SDS011;24244;51.950;5.902;2022-10-01T04:17:53;3.47;;;1.50;;
38465;SDS011;24244;51.950;5.902;2022-10-01T04:20:20;4.38;;;1.70;;
38465;SDS011;24244;51.950;5.902;2022-10-01T04:22:46;3.97;;;1.63;;
38465;SDS011;24244;51.950;5.902;2022-10-01T04:25:12;3.28;;;1.50;;
38465;SDS011;24244;51.950;5.902;2022-10-01T04:27:38;3.65;;;1.70;;
38465;SDS011;24244;51.950;5.902;2022-10-01T04:30:04;3.35;;;1.30;;
38465;SDS011;24244;51.950;5.902;2022-10-01T04:32:31;3.97;;;1.30;;
38465;SDS011;24244;51.950;5.902;2022-10-01T04:34:56;5.22;;;1.58;;
38465;SDS011;24244;51.950;5.902;2022-10-01T04:37:23;3.72;;;1.63;;
38465;SDS011;24244;51.950;5.902;2022-10-01T04:39:52;3.47;;;1.50;;
38465;SDS011;24244;51.950;5.902;2022-10-01T04:42:18;3.45;;;1.80;;
38465;SDS011;24244;51.950;5.902;2022-10-01T04:44:44;3.53;;;1.50;;
38465;SDS011;24244;51.950;5.902;2022-10-01T04:47:09;4.20;;;1.63;;
38465;SDS011;24244;51.950;5.902;2022-10-01T04:49:35;3.75;;;1.60;;
38465;SDS011;24244;51.950;5.902;2022-10-01T04:52:01;3.65;;;1.60;;
38465;SDS011;24244;51.950;5.902;2022-10-01T04:54:28;3.35;;;1.40;;
38465;SDS011;24244;51.950;5.902;2022-10-01T04:56:54;2.55;;;1.30;;
38465;SDS011;24244;51.950;5.902;2022-10-01T04:59:21;3.38;;;1.48;;
38465;SDS011;24244;51.950;5.902;2022-10-01T05:01:47;3.70;;;1.52;;
38465;SDS011;24244;51.950;5.902;2022-10-01T05:04:12;3.60;;;1.50;;
38465;SDS011;24244;51.950;5.902;2022-10-01T05:06:38;3.78;;;1.60;;
38465;SDS011;24244;51.950;5.902;2022-10-01T05:09:05;3.83;;;1.42;;
38465;SDS011;24244;51.950;5.902;2022-10-01T05:11:32;3.83;;;1.50;;
38465;SDS011;24244;51.950;5.902;2022-10-01T05:13:58;3.85;;;1.40;;
38465;SDS011;24244;51.950;5.902;2022-10-01T05:16:24;3.22;;;1.40;;
38465;SDS011;24244;51.950;5.902;2022-10-01T05:18:49;3.58;;;1.52;;
38465;SDS011;24244;51.950;5.902;2022-10-01T05:21:15;4.20;;;1.63;;
38465;SDS011;24244;51.950;5.902;2022-10-01T05:23:41;4.47;;;1.83;;
38465;SDS011;24244;51.950;5.902;2022-10-01T05:26:07;5.40;;;1.67;;
38465;SDS011;24244;51.950;5.902;2022-10-01T05:28:34;3.03;;;1.50;;
38465;SDS011;24244;51.950;5.902;2022-10-01T05:31:00;3.70;;;1.40;;
38465;SDS011;24244;51.950;5.902;2022-10-01T05:33:26;4.72;;;1.48;;
38465;SDS011;24244;51.950;5.902;2022-10-01T05:35:52;3.65;;;1.50;;
38465;SDS011;24244;51.950;5.902;2022-10-01T05:38:17;4.57;;;1.67;;
38465;SDS011;24244;51.950;5.902;2022-10-01T05:40:43;4.65;;;1.75;;
38465;SDS011;24244;51.950;5.902;2022-10-01T05:43:11;4.05;;;1.85;;
38465;SDS011;24244;51.950;5.902;2022-10-01T05:45:38;4.57;;;2.03;;
38465;SDS011;24244;51.950;5.902;2022-10-01T05:48:04;5.40;;;2.00;;
38465;SDS011;24244;51.950;5.902;2022-10-01T05:50:32;4.38;;;2.00;;
38465;SDS011;24244;51.950;5.902;2022-10-01T05:52:59;4.65;;;1.88;;
38465;SDS011;24244;51.950;5.902;2022-10-01T05:55:26;4.60;;;1.88;;
38465;SDS011;24244;51.950;5.902;2022-10-01T05:57:56;4.40;;;2.00;;
38465;SDS011;24244;51.950;5.902;2022-10-01T06:00:22;4.07;;;1.90;;
38465;SDS011;24244;51.950;5.902;2022-10-01T06:02:52;4.85;;;2.00;;
38465;SDS011;24244;51.950;5.902;2022-10-01T06:05:18;5.95;;;2.10;;
38465;SDS011;24244;51.950;5.902;2022-10-01T06:07:43;4.63;;;2.20;;
38465;SDS011;24244;51.950;5.902;2022-10-01T06:10:09;4.75;;;2.08;;
38465;SDS011;24244;51.950;5.902;2022-10-01T06:12:34;5.57;;;2.50;;
38465;SDS011;24244;51.950;5.902;2022-10-01T06:15:00;5.47;;;2.83;;
38465;SDS011;24244;51.950;5.902;2022-10-01T06:17:25;5.82;;;2.67;;
38465;SDS011;24244;51.950;5.902;2022-10-01T06:19:52;5.38;;;2.65;;
38465;SDS011;24244;51.950;5.902;2022-10-01T06:22:18;6.25;;;3.08;;
38465;SDS011;24244;51.950;5.902;2022-10-01T06:24:43;6.28;;;3.50;;
38465;SDS011;24244;51.950;5.902;2022-10-01T06:27:09;7.07;;;3.25;;
38465;SDS011;24244;51.950;5.902;2022-10-01T06:29:35;6.88;;;3.50;;
38465;SDS011;24244;51.950;5.902;2022-10-01T06:32:00;6.30;;;3.50;;
38465;SDS011;24244;51.950;5.902;2022-10-01T06:34:26;6.07;;;3.40;;
38465;SDS011;24244;51.950;5.902;2022-10-01T06:36:53;6.60;;;3.60;;
38465;SDS011;24244;51.950;5.902;2022-10-01T06:39:18;6.10;;;3.70;;
38465;SDS011;24244;51.950;5.902;2022-10-01T06:41:45;6.65;;;3.70;;
38465;SDS011;24244;51.950;5.902;2022-10-01T06:44:11;6.95;;;3.75;;
38465;SDS011;24244;51.950;5.902;2022-10-01T06:46:36;7.97;;;4.22;;
38465;SDS011;24244;51.950;5.902;2022-10-01T06:49:02;6.85;;;4.32;;
38465;SDS011;24244;51.950;5.902;2022-10-01T06:51:27;7.93;;;4.35;;
38465;SDS011;24244;51.950;5.902;2022-10-01T06:54:13;6.97;;;4.43;;
38465;SDS011;24244;51.950;5.902;2022-10-01T06:56:42;6.97;;;4.22;;
38465;SDS011;24244;51.950;5.902;2022-10-01T06:59:08;6.85;;;4.47;;
38465;SDS011;24244;51.950;5.902;2022-10-01T07:01:33;7.88;;;4.55;;
38465;SDS011;24244;51.950;5.902;2022-10-01T07:04:00;7.35;;;4.97;;
38465;SDS011;24244;51.950;5.902;2022-10-01T07:06:25;7.55;;;4.93;;
38465;SDS011;24244;51.950;5.902;2022-10-01T07:08:51;8.10;;;5.50;;
38465;SDS011;24244;51.950;5.902;2022-10-01T07:11:18;9.02;;;6.00;;
38465;SDS011;24244;51.950;5.902;2022-10-01T07:13:44;9.73;;;6.65;;
38465;SDS011;24244;51.950;5.902;2022-10-01T07:16:09;10.10;;;6.15;;
38465;SDS011;24244;51.950;5.902;2022-10-01T07:18:35;10.50;;;6.53;;
38465;SDS011;24244;51.950;5.902;2022-10-01T07:21:01;9.38;;;6.22;;
38465;SDS011;24244;51.950;5.902;2022-10-01T07:23:26;11.00;;;6.78;;
38465;SDS011;24244;51.950;5.902;2022-10-01T07:25:52;9.82;;;6.90;;
38465;SDS011;24244;51.950;5.902;2022-10-01T07:28:19;9.82;;;6.82;;
38465;SDS011;24244;51.950;5.902;2022-10-01T07:30:55;10.13;;;6.95;;
38465;SDS011;24244;51.950;5.902;2022-10-01T07:33:22;10.45;;;7.05;;
38465;SDS011;24244;51.950;5.902;2022-10-01T07:35:48;10.75;;;7.13;;
38465;SDS011;24244;51.950;5.902;2022-10-01T07:38:14;10.35;;;7.95;;
38465;SDS011;24244;51.950;5.902;2022-10-01T07:40:39;10.73;;;7.93;;
38465;SDS011;24244;51.950;5.902;2022-10-01T07:43:05;10.35;;;7.88;;
38465;SDS011;24244;51.950;5.902;2022-10-01T07:45:33;10.38;;;7.55;;
38465;SDS011;24244;51.950;5.902;2022-10-01T07:47:59;11.82;;;8.27;;
38465;SDS011;24244;51.950;5.902;2022-10-01T07:50:27;9.83;;;7.00;;
38465;SDS011;24244;51.950;5.902;2022-10-01T07:52:55;11.57;;;8.00;;
38465;SDS011;24244;51.950;5.902;2022-10-01T07:55:22;11.55;;;8.05;;
38465;SDS011;24244;51.950;5.902;2022-10-01T07:57:51;11.27;;;8.32;;
38465;SDS011;24244;51.950;5.902;2022-10-01T08:00:17;11.75;;;8.45;;
38465;SDS011;24244;51.950;5.902;2022-10-01T08:02:46;10.43;;;8.02;;
38465;SDS011;24244;51.950;5.902;2022-10-01T08:05:12;10.57;;;8.32;;
38465;SDS011;24244;51.950;5.902;2022-10-01T08:10:06;11.50;;;8.40;;
38465;SDS011;24244;51.950;5.902;2022-10-01T08:12:33;12.13;;;8.73;;
38465;SDS011;24244;51.950;5.902;2022-10-01T08:15:01;12.20;;;8.45;;
38465;SDS011;24244;51.950;5.902;2022-10-01T08:17:26;12.07;;;8.47;;
38465;SDS011;24244;51.950;5.902;2022-10-01T08:19:53;11.82;;;9.02;;
38465;SDS011;24244;51.950;5.902;2022-10-01T08:22:19;11.18;;;8.98;;
38465;SDS011;24244;51.950;5.902;2022-10-01T08:24:45;14.23;;;9.40;;
38465;SDS011;24244;51.950;5.902;2022-10-01T08:27:10;11.65;;;8.55;;
38465;SDS011;24244;51.950;5.902;2022-10-01T08:29:36;13.68;;;9.13;;
38465;SDS011;24244;51.950;5.902;2022-10-01T08:32:02;12.93;;;9.30;;
38465;SDS011;24244;51.950;5.902;2022-10-01T08:34:27;12.05;;;8.93;;
38465;SDS011;24244;51.950;5.902;2022-10-01T08:36:54;12.82;;;9.43;;
38465;SDS011;24244;51.950;5.902;2022-10-01T08:39:20;12.95;;;9.68;;
38465;SDS011;24244;51.950;5.902;2022-10-01T08:41:48;12.52;;;9.27;;
38465;SDS011;24244;51.950;5.902;2022-10-01T08:44:19;12.90;;;9.40;;
38465;SDS011;24244;51.950;5.902;2022-10-01T08:46:51;13.90;;;10.30;;
38465;SDS011;24244;51.950;5.902;2022-10-01T08:49:20;13.65;;;10.45;;
38465;SDS011;24244;51.950;5.902;2022-10-01T08:51:53;13.73;;;10.35;;
38465;SDS011;24244;51.950;5.902;2022-10-01T08:54:29;14.55;;;10.05;;
38465;SDS011;24244;51.950;5.902;2022-10-01T08:57:01;14.13;;;10.25;;
38465;SDS011;24244;51.950;5.902;2022-10-01T08:59:36;12.35;;;9.13;;
38465;SDS011;24244;51.950;5.902;2022-10-01T09:04:53;13.10;;;9.32;;
38465;SDS011;24244;51.950;5.902;2022-10-01T09:09:59;12.75;;;8.75;;
38465;SDS011;24244;51.950;5.902;2022-10-01T09:12:36;11.65;;;7.75;;
38465;SDS011;24244;51.950;5.902;2022-10-01T09:15:20;13.00;;;8.80;;
38465;SDS011;24244;51.950;5.902;2022-10-01T09:17:57;10.70;;;7.45;;
38465;SDS011;24244;51.950;5.902;2022-10-01T09:20:32;10.90;;;7.30;;
38465;SDS011;24244;51.950;5.902;2022-10-01T09:23:05;11.13;;;7.70;;
38465;SDS011;24244;51.950;5.902;2022-10-01T09:25:41;9.73;;;6.47;;
38465;SDS011;24244;51.950;5.902;2022-10-01T09:28:10;11.05;;;7.18;;
38465;SDS011;24244;51.950;5.902;2022-10-01T09:30:39;11.20;;;6.43;;
38465;SDS011;24244;51.950;5.902;2022-10-01T09:33:10;10.02;;;6.15;;
38465;SDS011;24244;51.950;5.902;2022-10-01T09:35:41;9.23;;;5.32;;
38465;SDS011;24244;51.950;5.902;2022-10-01T09:38:12;8.77;;;4.93;;
38465;SDS011;24244;51.950;5.902;2022-10-01T09:40:51;9.73;;;4.60;;
38465;SDS011;24244;51.950;5.902;2022-10-01T09:43:18;9.23;;;4.32;;
38465;SDS011;24244;51.950;5.902;2022-10-01T09:45:47;7.60;;;3.55;;
38465;SDS011;24244;51.950;5.902;2022-10-01T09:48:15;8.27;;;3.60;;
38465;SDS011;24244;51.950;5.902;2022-10-01T09:50:46;8.02;;;3.53;;
38465;SDS011;24244;51.950;5.902;2022-10-01T09:53:24;8.55;;;3.00;;
38465;SDS011;24244;51.950;5.902;2022-10-01T09:55:55;7.03;;;2.50;;
38465;SDS011;24244;51.950;5.902;2022-10-01T09:58:25;10.20;;;2.92;;
38465;SDS011;24244;51.950;5.902;2022-10-01T10:00:53;5.53;;;2.20;;
38465;SDS011;24244;51.950;5.902;2022-10-01T10:03:22;7.05;;;2.10;;
38465;SDS011;24244;51.950;5.902;2022-10-01T10:05:52;7.72;;;1.80;;
38465;SDS011;24244;51.950;5.902;2022-10-01T10:08:20;5.88;;;1.50;;
38465;SDS011;24244;51.950;5.902;2022-10-01T10:10:53;6.40;;;1.70;;
38465;SDS011;24244;51.950;5.902;2022-10-01T10:13:23;7.30;;;1.92;;
38465;SDS011;24244;51.950;5.902;2022-10-01T10:15:55;6.95;;;1.95;;
38465;SDS011;24244;51.950;5.902;2022-10-01T10:18:25;6.07;;;1.65;;
38465;SDS011;24244;51.950;5.902;2022-10-01T10:20:53;7.53;;;2.20;;
38465;SDS011;24244;51.950;5.902;2022-10-01T10:23:21;8.93;;;1.70;;
38465;SDS011;24244;51.950;5.902;2022-10-01T10:25:55;7.60;;;1.90;;
38465;SDS011;24244;51.950;5.902;2022-10-01T10:28:21;5.78;;;1.60;;
38465;SDS011;24244;51.950;5.902;2022-10-01T10:30:48;6.80;;;1.95;;
38465;SDS011;24244;51.950;5.902;2022-10-01T10:33:15;7.45;;;1.83;;
38465;SDS011;24244;51.950;5.902;2022-10-01T10:35:44;7.70;;;1.98;;
38465;SDS011;24244;51.950;5.902;2022-10-01T10:38:14;6.35;;;1.70;;
38465;SDS011;24244;51.950;5.902;2022-10-01T10:40:42;9.57;;;2.15;;
38465;SDS011;24244;51.950;5.902;2022-10-01T10:43:14;10.40;;;1.90;;
38465;SDS011;24244;51.950;5.902;2022-10-01T10:45:56;8.05;;;2.03;;
38465;SDS011;24244;51.950;5.902;2022-10-01T10:48:23;9.27;;;1.88;;
38465;SDS011;24244;51.950;5.902;2022-10-01T10:50:57;7.97;;;1.88;;
38465;SDS011;24244;51.950;5.902;2022-10-01T10:53:25;5.90;;;1.35;;
38465;SDS011;24244;51.950;5.902;2022-10-01T10:55:52;7.50;;;1.58;;
38465;SDS011;24244;51.950;5.902;2022-10-01T10:58:23;7.30;;;1.60;;
38465;SDS011;24244;51.950;5.902;2022-10-01T11:00:49;7.57;;;1.70;;
38465;SDS011;24244;51.950;5.902;2022-10-01T11:03:18;10.73;;;1.98;;
38465;SDS011;24244;51.950;5.902;2022-10-01T11:05:47;8.48;;;1.80;;
38465;SDS011;24244;51.950;5.902;2022-10-01T11:08:18;9.02;;;1.92;;
38465;SDS011;24244;51.950;5.902;2022-10-01T11:10:47;7.93;;;1.80;;
38465;SDS011;24244;51.950;5.902;2022-10-01T11:13:29;9.65;;;2.00;;
38465;SDS011;24244;51.950;5.902;2022-10-01T11:19:02;9.80;;;1.63;;
38465;SDS011;24244;51.950;5.902;2022-10-01T11:21:54;7.95;;;1.60;;
38465;SDS011;24244;51.950;5.902;2022-10-01T11:24:34;8.75;;;1.90;;
38465;SDS011;24244;51.950;5.902;2022-10-01T11:27:12;8.95;;;2.00;;
38465;SDS011;24244;51.950;5.902;2022-10-01T11:29:51;8.38;;;1.63;;
38465;SDS011;24244;51.950;5.902;2022-10-01T11:32:27;10.20;;;1.55;;
38465;SDS011;24244;51.950;5.902;2022-10-01T11:35:05;10.63;;;1.75;;
38465;SDS011;24244;51.950;5.902;2022-10-01T11:37:46;6.30;;;1.55;;
38465;SDS011;24244;51.950;5.902;2022-10-01T11:40:26;8.10;;;1.42;;
38465;SDS011;24244;51.950;5.902;2022-10-01T11:42:58;7.88;;;1.38;;
38465;SDS011;24244;51.950;5.902;2022-10-01T11:45:30;9.48;;;1.88;;
38465;SDS011;24244;51.950;5.902;2022-10-01T11:48:02;8.13;;;1.55;;
38465;SDS011;24244;51.950;5.902;2022-10-01T11:50:32;9.52;;;1.65;;
38465;SDS011;24244;51.950;5.902;2022-10-01T11:53:02;9.27;;;1.80;;
38465;SDS011;24244;51.950;5.902;2022-10-01T11:55:36;9.52;;;1.95;;
38465;SDS011;24244;51.950;5.902;2022-10-01T11:58:28;9.63;;;1.58;;
38465;SDS011;24244;51.950;5.902;2022-10-01T12:01:20;5.55;;;1.08;;
38465;SDS011;24244;51.950;5.902;2022-10-01T12:04:00;6.47;;;1.40;;
38465;SDS011;24244;51.950;5.902;2022-10-01T12:06:32;7.55;;;1.23;;
38465;SDS011;24244;51.950;5.902;2022-10-01T12:09:04;10.10;;;1.65;;
38465;SDS011;24244;51.950;5.902;2022-10-01T12:11:34;7.53;;;1.50;;
38465;SDS011;24244;51.950;5.902;2022-10-01T12:14:07;7.05;;;1.40;;
38465;SDS011;24244;51.950;5.902;2022-10-01T12:16:40;8.25;;;1.45;;
38465;SDS011;24244;51.950;5.902;2022-10-01T12:19:12;6.78;;;1.20;;
38465;SDS011;24244;51.950;5.902;2022-10-01T12:21:42;7.65;;;1.58;;
38465;SDS011;24244;51.950;5.902;2022-10-01T12:24:13;7.70;;;1.50;;
38465;SDS011;24244;51.950;5.902;2022-10-01T12:26:43;7.45;;;1.40;;
38465;SDS011;24244;51.950;5.902;2022-10-01T12:29:19;8.05;;;1.60;;
38465;SDS011;24244;51.950;5.902;2022-10-01T12:31:56;8.32;;;1.88;;
38465;SDS011;24244;51.950;5.902;2022-10-01T12:34:27;6.60;;;1.50;;
38465;SDS011;24244;51.950;5.902;2022-10-01T12:37:05;7.43;;;1.77;;
38465;SDS011;24244;51.950;5.902;2022-10-01T12:39:44;6.32;;;1.35;;
38465;SDS011;24244;51.950;5.902;2022-10-01T12:45:24;6.90;;;1.23;;
38465;SDS011;24244;51.950;5.902;2022-10-01T12:48:01;7.70;;;1.50;;
38465;SDS011;24244;51.950;5.902;2022-10-01T12:50:37;5.63;;;1.20;;
38465;SDS011;24244;51.950;5.902;2022-10-01T12:53:16;7.30;;;1.60;;
38465;SDS011;24244;51.950;5.902;2022-10-01T12:55:53;8.85;;;1.35;;
38465;SDS011;24244;51.950;5.902;2022-10-01T12:58:43;9.57;;;1.65;;
38465;SDS011;24244;51.950;5.902;2022-10-01T13:01:21;9.82;;;1.33;;
38465;SDS011;24244;51.950;5.902;2022-10-01T13:04:01;7.40;;;1.50;;
38465;SDS011;24244;51.950;5.902;2022-10-01T13:06:39;6.18;;;1.40;;
38465;SDS011;24244;51.950;5.902;2022-10-01T13:09:19;9.73;;;2.13;;
38465;SDS011;24244;51.950;5.902;2022-10-01T13:11:57;6.55;;;1.30;;
38465;SDS011;24244;51.950;5.902;2022-10-01T13:14:36;7.65;;;1.52;;
38465;SDS011;24244;51.950;5.902;2022-10-01T13:17:05;10.25;;;1.77;;
38465;SDS011;24244;51.950;5.902;2022-10-01T13:19:41;10.43;;;1.85;;
38465;SDS011;24244;51.950;5.902;2022-10-01T13:22:14;8.30;;;2.00;;
38465;SDS011;24244;51.950;5.902;2022-10-01T13:24:52;8.82;;;1.30;;
38465;SDS011;24244;51.950;5.902;2022-10-01T13:27:30;7.13;;;1.55;;
38465;SDS011;24244;51.950;5.902;2022-10-01T13:30:03;10.75;;;1.85;;
38465;SDS011;24244;51.950;5.902;2022-10-01T13:32:47;7.72;;;1.60;;
38465;SDS011;24244;51.950;5.902;2022-10-01T13:35:21;8.27;;;1.65;;
38465;SDS011;24244;51.950;5.902;2022-10-01T13:37:49;7.90;;;1.73;;
38465;SDS011;24244;51.950;5.902;2022-10-01T13:40:23;6.78;;;1.75;;
38465;SDS011;24244;51.950;5.902;2022-10-01T13:42:51;7.53;;;1.50;;
38465;SDS011;24244;51.950;5.902;2022-10-01T13:45:28;6.78;;;1.20;;
38465;SDS011;24244;51.950;5.902;2022-10-01T13:50:56;6.55;;;1.30;;
38465;SDS011;24244;51.950;5.902;2022-10-01T13:53:27;7.50;;;1.30;;
38465;SDS011;24244;51.950;5.902;2022-10-01T13:55:54;8.95;;;1.58;;
38465;SDS011;24244;51.950;5.902;2022-10-01T13:58:22;8.23;;;1.83;;
38465;SDS011;24244;51.950;5.902;2022-10-01T14:00:56;7.53;;;1.52;;
38465;SDS011;24244;51.950;5.902;2022-10-01T14:03:33;6.45;;;1.13;;
38465;SDS011;24244;51.950;5.902;2022-10-01T14:06:12;9.18;;;1.67;;
38465;SDS011;24244;51.950;5.902;2022-10-01T14:08:41;6.40;;;1.33;;
38465;SDS011;24244;51.950;5.902;2022-10-01T14:11:11;9.32;;;1.48;;
38465;SDS011;24244;51.950;5.902;2022-10-01T14:14:01;7.68;;;1.25;;
38465;SDS011;24244;51.950;5.902;2022-10-01T14:16:52;7.32;;;1.38;;
38465;SDS011;24244;51.950;5.902;2022-10-01T14:19:18;7.50;;;1.48;;
38465;SDS011;24244;51.950;5.902;2022-10-01T14:21:50;8.27;;;1.63;;
38465;SDS011;24244;51.950;5.902;2022-10-01T14:24:27;8.05;;;1.33;;
38465;SDS011;24244;51.950;5.902;2022-10-01T14:26:58;7.60;;;1.35;;
38465;SDS011;24244;51.950;5.902;2022-10-01T14:29:35;9.05;;;1.30;;
38465;SDS011;24244;51.950;5.902;2022-10-01T14:32:14;8.10;;;1.58;;
38465;SDS011;24244;51.950;5.902;2022-10-01T14:34:53;7.00;;;1.40;;
38465;SDS011;24244;51.950;5.902;2022-10-01T14:37:30;7.65;;;1.23;;
38465;SDS011;24244;51.950;5.902;2022-10-01T14:40:05;9.25;;;2.00;;
38465;SDS011;24244;51.950;5.902;2022-10-01T14:42:38;5.88;;;1.30;;
38465;SDS011;24244;51.950;5.902;2022-10-01T14:45:12;6.35;;;1.48;;
38465;SDS011;24244;51.950;5.902;2022-10-01T14:47:39;6.85;;;1.80;;
38465;SDS011;24244;51.950;5.902;2022-10-01T14:50:08;7.68;;;1.30;;
38465;SDS011;24244;51.950;5.902;2022-10-01T14:52:36;7.68;;;1.50;;
38465;SDS011;24244;51.950;5.902;2022-10-01T14:55:11;6.13;;;1.40;;
38465;SDS011;24244;51.950;5.902;2022-10-01T14:57:39;8.23;;;1.60;;
38465;SDS011;24244;51.950;5.902;2022-10-01T15:00:08;8.35;;;1.50;;
38465;SDS011;24244;51.950;5.902;2022-10-01T15:02:42;8.32;;;1.45;;
38465;SDS011;24244;51.950;5.902;2022-10-01T15:05:13;8.23;;;1.30;;
38465;SDS011;24244;51.950;5.902;2022-10-01T15:07:47;6.03;;;1.27;;
38465;SDS011;24244;51.950;5.902;2022-10-01T15:10:15;7.53;;;1.65;;
38465;SDS011;24244;51.950;5.902;2022-10-01T15:12:48;7.60;;;1.60;;
38465;SDS011;24244;51.950;5.902;2022-10-01T15:15:16;9.25;;;1.50;;
38465;SDS011;24244;51.950;5.902;2022-10-01T15:17:43;7.75;;;1.50;;
38465;SDS011;24244;51.950;5.902;2022-10-01T15:20:09;7.78;;;1.60;;
38465;SDS011;24244;51.950;5.902;2022-10-01T15:22:37;7.33;;;1.57;;